Time;durP1;ratioP1;P1;durP2;ratioP2;P2;SDS_P1;SDS_P2;PMS_P1;PMS_P2;Temp;Humidity;BMP_temperature;BMP_pressure;BME280_temperature;BME280_humidity;BME280_pressure;Samples;Min_cycle;Max_cycle;Signal;HPM_P1;HPM_P2
2023/12/29 00:00:10;;;;;;;0.00;0.00;;;25.90;56.10;;;;;;5094653;28;20198;-48
2023/12/29 00:02:41;;;;;;;0.05;0.05;;;25.90;55.90;;;;;;5094238;28;20230;-50
2023/12/29 00:05:12;;;;;;;0.00;0.00;;;25.90;55.80;;;;;;5094002;28;20680;-48
2023/12/29 00:07:42;;;;;;;0.00;0.00;;;26.00;55.80;;;;;;5093976;28;20246;-48
2023/12/29 00:10:15;;;;;;;0.00;0.00;;;26.00;55.60;;;;;;5094008;28;20197;-48
2023/12/29 00:12:46;;;;;;;0.00;0.00;;;26.10;55.60;;;;;;5093902;28;20221;-47
2023/12/29 00:15:20;;;;;;;0.00;0.00;;;26.10;55.50;;;;;;5093845;28;20229;-47
2023/12/29 00:17:52;;;;;;;0.00;0.00;;;26.20;55.40;;;;;;5093681;28;20201;-48
2023/12/29 00:20:23;;;;;;;0.00;0.00;;;26.20;55.30;;;;;;5093414;28;20725;-47
2023/12/29 00:22:58;;;;;;;0.00;0.00;;;26.20;55.30;;;;;;5093514;28;20202;-48
2023/12/29 00:25:30;;;;;;;0.00;0.00;;;26.20;55.30;;;;;;5093413;28;20505;-48
2023/12/29 00:28:01;;;;;;;0.00;0.00;;;26.30;55.40;;;;;;5093963;28;20213;-48
2023/12/29 00:30:32;;;;;;;0.00;0.00;;;26.20;55.30;;;;;;5093672;28;20194;-46
2023/12/29 00:33:02;;;;;;;0.00;0.00;;;26.30;55.40;;;;;;5093570;28;20281;-45
2023/12/29 00:35:33;;;;;;;0.00;0.00;;;26.30;55.40;;;;;;5093369;28;20228;-51
2023/12/29 00:38:04;;;;;;;0.00;0.00;;;26.30;55.40;;;;;;5093809;28;20213;-47
2023/12/29 00:40:36;;;;;;;0.00;0.00;;;26.30;55.30;;;;;;5093568;28;20205;-48
2023/12/29 00:43:07;;;;;;;0.00;0.00;;;26.40;55.30;;;;;;5093018;28;20197;-48
2023/12/29 00:45:38;;;;;;;0.00;0.00;;;26.40;55.30;;;;;;5093461;28;20217;-48
2023/12/29 00:48:09;;;;;;;0.00;0.00;;;26.40;55.30;;;;;;5093254;28;20194;-48
2023/12/29 00:50:40;;;;;;;0.00;0.00;;;26.50;55.20;;;;;;5093606;28;20194;-45
2023/12/29 00:53:11;;;;;;;0.00;0.00;;;26.50;55.20;;;;;;5093451;28;20577;-46
2023/12/29 00:55:43;;;;;;;0.00;0.00;;;26.50;55.00;;;;;;5092737;28;20225;-47
2023/12/29 00:58:14;;;;;;;0.00;0.00;;;26.50;54.80;;;;;;5091990;28;20212;-46
2023/12/29 01:00:45;;;;;;;0.00;0.00;;;26.60;54.80;;;;;;5093425;28;20190;-47
2023/12/29 01:03:15;;;;;;;0.00;0.00;;;26.60;54.70;;;;;;5092797;28;20198;-47
2023/12/29 01:05:46;;;;;;;0.00;0.00;;;26.60;54.60;;;;;;5091580;28;20690;-50
2023/12/29 01:08:17;;;;;;;0.00;0.00;;;26.70;54.60;;;;;;5092297;28;20190;-48
2023/12/29 01:10:49;;;;;;;0.00;0.00;;;26.70;54.50;;;;;;5093422;28;20223;-49
2023/12/29 01:13:20;;;;;;;0.00;0.00;;;26.70;54.40;;;;;;5092835;28;20669;-47
2023/12/29 01:15:51;;;;;;;0.00;0.00;;;26.80;54.40;;;;;;5092448;28;20221;-45
2023/12/29 01:18:21;;;;;;;0.00;0.00;;;26.80;54.50;;;;;;5093294;28;20701;-44
2023/12/29 01:20:52;;;;;;;0.00;0.00;;;26.80;54.40;;;;;;5092296;28;20289;-45
2023/12/29 01:23:23;;;;;;;0.00;0.00;;;26.80;54.40;;;;;;5092754;28;20201;-47
2023/12/29 01:25:56;;;;;;;0.00;0.00;;;26.80;54.40;;;;;;5092384;28;20580;-45
2023/12/29 01:28:27;;;;;;;0.00;0.00;;;26.90;54.40;;;;;;5091971;28;20194;-45
2023/12/29 01:30:57;;;;;;;0.00;0.00;;;26.90;55.00;;;;;;5092428;28;20194;-48
2023/12/29 01:33:28;;;;;;;0.00;0.00;;;26.90;54.40;;;;;;5092627;28;20198;-51
2023/12/29 01:35:59;;;;;;;0.00;0.00;;;26.90;54.40;;;;;;5092620;28;20226;-50
2023/12/29 01:38:29;;;;;;;0.00;0.00;;;26.90;54.30;;;;;;5092509;28;20654;-51
2023/12/29 01:41:02;;;;;;;0.00;0.00;;;26.90;54.30;;;;;;5092733;28;20194;-48
2023/12/29 01:43:33;;;;;;;0.00;0.00;;;27.00;54.40;;;;;;5091710;28;20194;-48
2023/12/29 01:46:04;;;;;;;0.00;0.00;;;27.00;54.20;;;;;;5091844;28;20218;-47
2023/12/29 01:48:35;;;;;;;0.00;0.00;;;27.00;54.10;;;;;;5092082;28;20252;-48
2023/12/29 01:51:06;;;;;;;0.00;0.00;;;27.00;54.00;;;;;;5092171;28;20194;-48
2023/12/29 01:53:39;;;;;;;0.00;0.00;;;27.00;53.80;;;;;;5092003;28;20198;-48
2023/12/29 01:56:13;;;;;;;0.00;0.00;;;27.10;53.90;;;;;;5091866;28;20237;-47
2023/12/29 01:58:44;;;;;;;0.00;0.00;;;27.10;53.80;;;;;;5092260;28;20197;-55
2023/12/29 02:01:16;;;;;;;0.00;0.00;;;27.10;53.60;;;;;;5092202;28;20198;-47
2023/12/29 02:03:47;;;;;;;0.00;0.00;;;27.10;53.60;;;;;;5092417;28;20201;-47
2023/12/29 02:06:20;;;;;;;0.00;0.00;;;27.20;53.60;;;;;;5092107;28;20217;-48
2023/12/29 02:08:51;;;;;;;0.00;0.00;;;27.20;53.60;;;;;;5091805;28;20202;-50
2023/12/29 02:11:24;;;;;;;0.00;0.00;;;27.20;53.60;;;;;;5091894;28;20255;-48
2023/12/29 02:13:55;;;;;;;0.00;0.00;;;27.30;53.60;;;;;;5091833;28;20201;-48
2023/12/29 02:16:33;;;;;;;0.00;0.00;;;27.30;53.70;;;;;;5091895;28;20222;-47
2023/12/29 02:19:06;;;;;;;0.00;0.00;;;27.30;53.60;;;;;;5091818;28;20201;-48
2023/12/29 02:21:37;;;;;;;0.00;0.00;;;27.30;53.60;;;;;;5091711;28;20198;-48
2023/12/29 02:24:08;;;;;;;0.00;0.00;;;27.30;53.60;;;;;;5091271;28;20197;-47
2023/12/29 02:26:42;;;;;;;0.00;0.00;;;27.30;53.60;;;;;;5091238;28;20229;-47
2023/12/29 02:29:17;;;;;;;0.00;0.00;;;27.40;53.70;;;;;;5091493;28;20190;-47
2023/12/29 02:31:53;;;;;;;0.00;0.00;;;27.40;53.70;;;;;;5091457;28;20212;-48
2023/12/29 02:34:26;;;;;;;0.00;0.00;;;27.40;53.70;;;;;;5091399;28;20646;-48
2023/12/29 02:36:58;;;;;;;0.00;0.00;;;27.50;53.60;;;;;;5091334;28;20225;-48
2023/12/29 02:39:29;;;;;;;0.00;0.00;;;27.50;53.70;;;;;;5091529;28;20201;-48
2023/12/29 02:42:02;;;;;;;0.00;0.00;;;27.60;53.70;;;;;;5091544;28;20194;-47
2023/12/29 02:44:33;;;;;;;0.00;0.00;;;27.60;53.60;;;;;;5090935;28;20201;-44
2023/12/29 02:47:03;;;;;;;0.00;0.00;;;27.60;53.40;;;;;;5091383;28;20686;-45
2023/12/29 02:49:34;;;;;;;0.00;0.00;;;27.60;53.30;;;;;;5091483;28;20194;-48
2023/12/29 02:52:05;;;;;;;0.00;0.00;;;27.70;53.30;;;;;;5091053;28;20236;-45
2023/12/29 02:54:36;;;;;;;0.00;0.00;;;27.70;53.20;;;;;;5091574;28;20664;-48
2023/12/29 02:57:08;;;;;;;0.00;0.00;;;27.80;53.20;;;;;;5090448;28;20222;-44
2023/12/29 02:59:39;;;;;;;0.00;0.00;;;27.80;53.10;;;;;;5091438;28;20565;-46
2023/12/29 03:02:10;;;;;;;0.00;0.00;;;27.90;53.10;;;;;;5090981;28;20198;-45
2023/12/29 03:04:40;;;;;;;0.00;0.00;;;27.90;53.10;;;;;;5091140;28;20664;-44
2023/12/29 03:07:12;;;;;;;0.00;0.00;;;28.00;53.10;;;;;;5091288;28;20217;-47
2023/12/29 03:09:43;;;;;;;0.00;0.00;;;28.00;53.10;;;;;;5090836;28;20203;-46
2023/12/29 03:12:15;;;;;;;0.00;0.00;;;28.00;53.10;;;;;;5070799;28;20665;-44
2023/12/29 03:14:47;;;;;;;0.00;0.00;;;28.00;53.00;;;;;;5090610;28;20197;-47
2023/12/29 03:17:17;;;;;;;0.00;0.00;;;28.10;53.10;;;;;;5091047;28;20230;-50
2023/12/29 03:19:48;;;;;;;0.00;0.00;;;28.10;53.00;;;;;;5091366;28;20190;-44
2023/12/29 03:22:19;;;;;;;0.00;0.00;;;28.10;53.00;;;;;;5091344;28;20190;-44
2023/12/29 03:24:49;;;;;;;0.00;0.00;;;28.10;52.70;;;;;;5087006;28;20226;-48
2023/12/29 03:27:22;;;;;;;0.00;0.00;;;28.20;52.80;;;;;;5079515;28;20233;-45
2023/12/29 03:29:53;;;;;;;0.00;0.00;;;28.20;52.80;;;;;;5070159;28;20199;-46
2023/12/29 03:32:24;;;;;;;0.00;0.00;;;28.30;52.90;;;;;;5071105;28;20210;-44
2023/12/29 03:34:54;;;;;;;0.00;0.00;;;28.30;52.80;;;;;;5070365;28;20631;-46
2023/12/29 03:37:25;;;;;;;0.00;0.00;;;28.40;52.60;;;;;;5077020;28;20783;-44
2023/12/29 03:39:56;;;;;;;0.00;0.00;;;28.40;52.50;;;;;;5090979;28;20675;-44
2023/12/29 03:42:29;;;;;;;0.00;0.00;;;28.40;52.50;;;;;;5090966;28;20198;-46
2023/12/29 03:45:00;;;;;;;0.00;0.00;;;28.40;52.50;;;;;;5090527;28;20213;-46
2023/12/29 03:47:31;;;;;;;0.00;0.00;;;28.50;52.50;;;;;;5090053;28;20275;-47
2023/12/29 03:50:02;;;;;;;0.00;0.00;;;28.50;52.40;;;;;;5090017;28;20202;-47
2023/12/29 03:52:33;;;;;;;0.00;0.00;;;28.50;52.30;;;;;;5090337;28;20218;-47
2023/12/29 03:55:03;;;;;;;0.00;0.00;;;28.60;52.30;;;;;;5089950;28;20207;-50
2023/12/29 03:57:36;;;;;;;0.00;0.00;;;28.60;52.40;;;;;;5090096;28;20603;-51
2023/12/29 04:00:08;;;;;;;0.00;0.00;;;28.60;52.20;;;;;;5090693;28;20213;-46
2023/12/29 04:02:41;;;;;;;0.00;0.00;;;28.70;52.20;;;;;;5091672;28;20202;-48
2023/12/29 04:05:13;;;;;;;0.00;0.00;;;28.70;52.30;;;;;;5089808;28;20542;-45
2023/12/29 04:07:44;;;;;;;0.00;0.00;;;28.70;52.30;;;;;;5091089;28;20226;-50
2023/12/29 04:10:14;;;;;;;0.00;0.00;;;28.70;52.30;;;;;;5090271;28;20206;-45
2023/12/29 04:12:47;;;;;;;0.00;0.00;;;28.70;53.00;;;;;;5090825;28;20221;-45
2023/12/29 04:15:18;;;;;;;0.00;0.00;;;28.70;52.40;;;;;;5089863;28;20210;-45
2023/12/29 04:17:48;;;;;;;0.00;0.00;;;28.70;52.40;;;;;;5090429;28;20720;-45
2023/12/29 04:20:19;;;;;;;0.00;0.00;;;28.70;52.40;;;;;;5089983;28;20201;-44
2023/12/29 04:22:50;;;;;;;0.00;0.00;;;28.70;52.30;;;;;;5089978;28;20210;-46
2023/12/29 04:25:21;;;;;;;0.00;0.00;;;28.70;52.20;;;;;;5089234;28;20202;-48
2023/12/29 04:27:53;;;;;;;0.00;0.00;;;28.80;52.30;;;;;;5089406;28;20203;-48
2023/12/29 04:30:24;;;;;;;0.00;0.00;;;28.80;52.30;;;;;;5089919;28;20202;-46
2023/12/29 04:32:55;;;;;;;0.00;0.00;;;28.80;52.20;;;;;;5089335;28;20515;-45
2023/12/29 04:35:26;;;;;;;0.00;0.00;;;28.80;52.10;;;;;;5089734;28;20217;-44
2023/12/29 04:37:56;;;;;;;0.00;0.00;;;28.80;52.00;;;;;;5089693;28;20595;-44
2023/12/29 04:40:27;;;;;;;0.00;0.00;;;28.90;52.00;;;;;;5089574;28;20198;-44
2023/12/29 04:43:00;;;;;;;0.00;0.00;;;28.90;52.00;;;;;;5089600;28;20675;-47
2023/12/29 04:45:31;;;;;;;0.00;0.00;;;28.90;51.90;;;;;;5089941;28;20767;-45
2023/12/29 04:48:01;;;;;;;0.00;0.00;;;28.90;51.80;;;;;;5089081;28;20194;-44
2023/12/29 04:50:32;;;;;;;0.00;0.00;;;29.00;52.00;;;;;;5089751;28;20589;-44
2023/12/29 04:53:03;;;;;;;0.00;0.00;;;28.90;51.90;;;;;;5088508;28;20708;-47
2023/12/29 04:55:33;;;;;;;0.00;0.00;;;29.00;52.60;;;;;;5088873;28;20201;-48
2023/12/29 04:58:06;;;;;;;0.00;0.00;;;29.00;51.90;;;;;;5088430;28;20874;-45
2023/12/29 05:00:37;;;;;;;0.00;0.00;;;29.00;51.90;;;;;;5088965;28;20202;-46
2023/12/29 05:03:08;;;;;;;0.00;0.00;;;29.00;51.90;;;;;;5090006;28;20194;-54
2023/12/29 05:05:39;;;;;;;0.00;0.00;;;29.00;51.90;;;;;;5088852;28;20613;-47
2023/12/29 05:08:09;;;;;;;0.00;0.00;;;29.00;51.80;;;;;;5089190;28;20676;-49
2023/12/29 05:10:40;;;;;;;0.00;0.00;;;29.00;51.80;;;;;;5089430;28;20194;-50
2023/12/29 05:13:13;;;;;;;0.00;0.00;;;29.00;51.80;;;;;;5088180;28;20198;-50
2023/12/29 05:15:43;;;;;;;0.00;0.00;;;29.00;51.70;;;;;;5089069;28;20249;-46
2023/12/29 05:18:14;;;;;;;0.00;0.00;;;29.00;51.80;;;;;;5088781;28;20226;-46
2023/12/29 05:20:46;;;;;;;0.00;0.00;;;29.00;51.80;;;;;;5087561;28;20198;-45
2023/12/29 05:23:16;;;;;;;0.00;0.00;;;29.00;52.30;;;;;;5088608;28;20349;-46
2023/12/29 05:25:47;;;;;;;0.00;0.00;;;29.10;51.70;;;;;;5089037;28;20217;-47
2023/12/29 05:28:19;;;;;;;0.00;0.00;;;29.10;51.60;;;;;;5088908;28;20666;-47
2023/12/29 05:30:50;;;;;;;0.00;0.00;;;29.10;51.50;;;;;;5089257;28;20213;-50
2023/12/29 05:33:21;;;;;;;0.00;0.00;;;29.10;51.50;;;;;;5088851;28;20198;-50
2023/12/29 05:35:52;;;;;;;0.00;0.00;;;29.10;51.50;;;;;;5088408;28;20557;-46
2023/12/29 05:38:22;;;;;;;0.00;0.00;;;29.10;51.40;;;;;;5086027;28;20237;-45
2023/12/29 05:40:53;;;;;;;0.00;0.00;;;29.10;51.30;;;;;;5089156;28;20198;-45
2023/12/29 05:43:26;;;;;;;0.00;0.00;;;29.10;51.30;;;;;;5088509;28;20198;-44
2023/12/29 05:45:57;;;;;;;0.00;0.00;;;29.10;51.20;;;;;;5088636;28;20225;-43
2023/12/29 05:48:27;;;;;;;0.00;0.00;;;29.10;51.30;;;;;;5088744;28;20194;-46
2023/12/29 05:50:58;;;;;;;0.00;0.00;;;29.10;51.30;;;;;;5088186;28;20200;-46
2023/12/29 05:53:29;;;;;;;0.00;0.00;;;29.10;52.00;;;;;;5088869;28;20542;-50
2023/12/29 05:56:00;;;;;;;0.00;0.00;;;29.10;51.40;;;;;;5091466;28;20225;-50
2023/12/29 05:58:32;;;;;;;0.00;0.00;;;29.10;51.40;;;;;;5091083;28;20226;-48
2023/12/29 06:01:03;;;;;;;0.00;0.00;;;29.10;51.40;;;;;;5092115;28;20202;-48
2023/12/29 06:03:34;;;;;;;0.00;0.00;;;29.20;51.50;;;;;;5092592;28;20198;-49
2023/12/29 06:06:04;;;;;;;0.00;0.00;;;29.10;51.50;;;;;;5091809;28;20253;-51
2023/12/29 06:08:35;;;;;;;0.00;0.00;;;29.10;51.50;;;;;;5092086;28;20203;-48
2023/12/29 06:11:06;;;;;;;0.00;0.00;;;29.10;52.10;;;;;;5092053;28;20194;-52
2023/12/29 06:13:39;;;;;;;0.00;0.00;;;29.10;51.60;;;;;;5090999;28;20229;-45
2023/12/29 06:16:10;;;;;;;0.00;0.00;;;29.10;51.50;;;;;;5091419;28;20300;-45
2023/12/29 06:18:40;;;;;;;0.00;0.00;;;29.10;51.60;;;;;;5091379;28;20226;-45
2023/12/29 06:21:11;;;;;;;0.00;0.00;;;29.10;51.50;;;;;;5091169;28;20190;-44
2023/12/29 06:23:42;;;;;;;0.00;0.00;;;29.10;51.40;;;;;;5092066;28;20198;-46
2023/12/29 06:26:18;;;;;;;0.00;0.00;;;29.10;51.40;;;;;;5091597;28;20747;-45
2023/12/29 06:28:51;;;;;;;0.00;0.00;;;29.10;51.30;;;;;;5091022;28;20197;-44
2023/12/29 06:31:22;;;;;;;0.00;0.00;;;29.10;51.20;;;;;;5091345;28;20664;-50
2023/12/29 06:33:53;;;;;;;0.00;0.00;;;29.10;51.20;;;;;;5091263;28;20197;-51
2023/12/29 06:36:23;;;;;;;0.00;0.00;;;29.10;51.20;;;;;;5091211;28;20233;-45
2023/12/29 06:38:54;;;;;;;0.00;0.00;;;29.10;51.20;;;;;;5091043;28;20251;-50
2023/12/29 06:41:25;;;;;;;0.00;0.00;;;29.20;51.20;;;;;;5090533;28;20204;-48
2023/12/29 06:43:57;;;;;;;0.00;0.00;;;29.20;51.10;;;;;;5091760;28;20190;-51
2023/12/29 06:46:28;;;;;;;0.00;0.00;;;29.20;51.20;;;;;;5091189;28;20681;-47
2023/12/29 06:48:59;;;;;;;0.00;0.00;;;29.20;51.10;;;;;;5091631;28;20198;-47
2023/12/29 06:51:30;;;;;;;0.00;0.00;;;29.20;51.20;;;;;;5091469;28;20204;-43
2023/12/29 06:54:00;;;;;;;0.00;0.00;;;29.20;51.00;;;;;;5090365;28;20194;-49
2023/12/29 06:56:31;;;;;;;0.00;0.00;;;29.20;50.80;;;;;;5090767;28;20222;-43
2023/12/29 06:59:04;;;;;;;0.00;0.00;;;29.20;50.70;;;;;;5091141;28;20608;-52
2023/12/29 07:01:34;;;;;;;0.00;0.00;;;29.20;50.70;;;;;;5091636;28;20216;-48
2023/12/29 07:04:05;;;;;;;0.00;0.00;;;29.20;50.60;;;;;;5094821;28;20737;-51
2023/12/29 07:06:36;;;;;;;0.00;0.00;;;29.20;50.70;;;;;;5095448;28;20310;-48
2023/12/29 07:09:07;;;;;;;0.00;0.00;;;29.20;50.60;;;;;;5095757;28;20194;-55
2023/12/29 07:11:38;;;;;;;0.00;0.00;;;29.20;50.30;;;;;;5094753;28;20242;-47
2023/12/29 07:14:11;;;;;;;0.00;0.00;;;29.20;50.20;;;;;;5094914;28;20194;-48
2023/12/29 07:16:42;;;;;;;0.00;0.00;;;29.20;50.30;;;;;;5095387;28;20213;-47
2023/12/29 07:19:12;;;;;;;0.00;0.00;;;29.20;50.40;;;;;;5094886;28;20232;-46
2023/12/29 07:21:43;;;;;;;0.00;0.00;;;29.20;50.50;;;;;;5094853;28;20194;-42
2023/12/29 07:24:14;;;;;;;0.00;0.00;;;29.20;50.50;;;;;;5095190;28;20198;-44
2023/12/29 07:26:45;;;;;;;0.00;0.00;;;29.10;50.10;;;;;;5093752;28;20488;-44
2023/12/29 07:29:17;;;;;;;0.00;0.00;;;29.10;50.20;;;;;;5095133;28;20204;-47
2023/12/29 07:31:48;;;;;;;0.00;0.00;;;29.10;50.20;;;;;;5094624;28;20650;-50
2023/12/29 07:34:19;;;;;;;0.00;0.00;;;29.10;50.10;;;;;;5094754;28;20229;-50
2023/12/29 07:36:50;;;;;;;0.00;0.00;;;29.10;50.10;;;;;;5094435;28;20384;-48
2023/12/29 07:39:21;;;;;;;0.00;0.00;;;29.10;50.00;;;;;;5094688;28;20236;-50
2023/12/29 07:41:53;;;;;;;0.00;0.00;;;29.10;50.00;;;;;;5094180;28;20194;-49
2023/12/29 07:44:25;;;;;;;0.00;0.00;;;29.10;50.00;;;;;;5095072;28;20545;-48
2023/12/29 07:46:56;;;;;;;0.00;0.00;;;29.10;49.80;;;;;;5094435;28;20523;-45
2023/12/29 07:49:27;;;;;;;0.00;0.00;;;29.10;49.70;;;;;;5094401;28;20243;-45
2023/12/29 07:51:59;;;;;;;0.00;0.00;;;29.10;49.60;;;;;;5094402;28;20197;-48
2023/12/29 07:54:30;;;;;;;0.00;0.00;;;29.10;49.50;;;;;;5094594;28;20281;-46
2023/12/29 07:57:00;;;;;;;0.00;0.00;;;29.00;49.30;;;;;;5093851;28;20458;-49
2023/12/29 07:59:33;;;;;;;0.00;0.00;;;29.00;49.20;;;;;;5094142;28;20707;-46
2023/12/29 08:02:07;;;;;;;0.00;0.00;;;29.00;49.00;;;;;;5094482;28;20277;-52
2023/12/29 08:04:38;;;;;;;0.00;0.00;;;29.00;48.90;;;;;;5094135;28;20197;-46
2023/12/29 08:07:09;;;;;;;0.00;0.00;;;29.00;48.80;;;;;;5093943;28;20232;-50
2023/12/29 08:09:40;;;;;;;0.00;0.00;;;28.90;48.70;;;;;;5094302;28;20194;-46
2023/12/29 08:12:11;;;;;;;0.00;0.00;;;28.90;48.70;;;;;;5093719;28;20651;-47
2023/12/29 08:14:44;;;;;;;0.00;0.00;;;28.90;48.70;;;;;;5093990;28;20284;-53
2023/12/29 08:17:14;;;;;;;0.00;0.00;;;28.90;48.80;;;;;;5094015;28;20218;-47
2023/12/29 08:19:45;;;;;;;0.00;0.00;;;28.90;48.90;;;;;;5094098;28;20237;-44
2023/12/29 08:22:16;;;;;;;0.00;0.00;;;28.90;49.00;;;;;;5094180;28;20198;-43
2023/12/29 08:24:47;;;;;;;0.00;0.00;;;28.90;49.00;;;;;;5093602;28;20194;-43
2023/12/29 08:27:24;;;;;;;0.00;0.00;;;28.80;48.90;;;;;;5093182;28;20214;-43
2023/12/29 08:29:58;;;;;;;0.00;0.00;;;28.80;48.90;;;;;;5093901;28;20665;-43
2023/12/29 08:32:28;;;;;;;0.00;0.00;;;28.80;48.80;;;;;;5093564;28;20191;-43
2023/12/29 08:34:59;;;;;;;0.00;0.00;;;28.80;48.70;;;;;;5093456;28;20210;-50
2023/12/29 08:37:30;;;;;;;0.00;0.00;;;28.80;48.70;;;;;;5093609;28;20225;-48
2023/12/29 08:40:04;;;;;;;0.00;0.00;;;28.80;48.70;;;;;;5093197;28;20565;-48
2023/12/29 08:42:34;;;;;;;0.00;0.00;;;28.70;48.40;;;;;;5093618;28;20190;-48
2023/12/29 08:45:08;;;;;;;0.00;0.00;;;28.70;48.30;;;;;;5093128;28;20190;-42
2023/12/29 08:47:38;;;;;;;0.00;0.00;;;28.70;48.10;;;;;;5093256;28;20236;-43
2023/12/29 08:50:10;;;;;;;0.00;0.00;;;28.70;48.00;;;;;;5087511;28;20655;-42
2023/12/29 08:52:40;;;;;;;0.00;0.00;;;28.70;47.90;;;;;;5088165;28;20218;-42
2023/12/29 08:55:11;;;;;;;0.00;0.00;;;28.60;47.60;;;;;;5088815;28;20205;-48
2023/12/29 08:57:42;;;;;;;0.00;0.00;;;28.60;47.50;;;;;;5088388;28;20237;-43
2023/12/29 09:00:15;;;;;;;0.00;0.00;;;28.60;47.40;;;;;;5088540;28;20206;-43
2023/12/29 09:02:46;;;;;;;0.00;0.00;;;28.60;47.30;;;;;;5089269;28;21013;-46
2023/12/29 09:05:17;;;;;;;0.00;0.00;;;28.50;47.20;;;;;;5088639;28;20217;-49
2023/12/29 09:07:48;;;;;;;0.00;0.00;;;28.50;47.20;;;;;;5088877;28;20222;-43
2023/12/29 09:10:18;;;;;;;0.00;0.00;;;28.50;47.40;;;;;;5088535;28;20536;-45
2023/12/29 09:12:49;;;;;;;0.00;0.00;;;28.50;47.40;;;;;;5089229;28;20205;-44
2023/12/29 09:15:23;;;;;;;0.00;0.00;;;28.50;47.40;;;;;;5088255;28;20194;-45
2023/12/29 09:17:53;;;;;;;0.00;0.00;;;28.50;47.50;;;;;;5089369;28;20202;-43
2023/12/29 09:20:24;;;;;;;0.00;0.00;;;28.40;47.40;;;;;;5087602;28;20213;-45
2023/12/29 09:22:55;;;;;;;0.00;0.00;;;28.40;47.40;;;;;;5086267;28;20206;-44
2023/12/29 09:25:26;;;;;;;0.00;0.00;;;28.40;47.40;;;;;;5086752;28;20693;-42
2023/12/29 09:27:57;;;;;;;0.00;0.00;;;28.40;47.40;;;;;;5087422;28;20198;-45
2023/12/29 09:30:29;;;;;;;0.00;0.00;;;28.40;47.40;;;;;;5087012;28;20202;-44
2023/12/29 09:33:00;;;;;;;0.00;0.00;;;28.40;47.40;;;;;;5087128;28;20202;-44
2023/12/29 09:35:31;;;;;;;0.00;0.00;;;28.40;47.30;;;;;;5087466;28;20206;-44
2023/12/29 09:38:03;;;;;;;0.00;0.00;;;28.30;47.00;;;;;;5087811;28;20564;-44
2023/12/29 09:40:34;;;;;;;0.00;0.00;;;28.30;47.00;;;;;;5088729;28;20202;-43
2023/12/29 09:43:11;;;;;;;0.00;0.00;;;28.30;46.90;;;;;;5089004;28;20289;-43
2023/12/29 09:45:48;;;;;;;0.00;0.00;;;28.30;46.80;;;;;;5089073;28;20200;-42
2023/12/29 09:48:25;;;;;;;0.00;0.00;;;28.30;46.80;;;;;;5088403;28;20201;-43
2023/12/29 09:50:56;;;;;;;0.00;0.00;;;28.20;46.80;;;;;;5088500;28;20542;-44
2023/12/29 09:53:29;;;;;;;0.00;0.00;;;28.20;46.70;;;;;;5088281;28;20198;-41
2023/12/29 09:56:01;;;;;;;0.00;0.00;;;28.20;46.70;;;;;;5088227;28;20225;-45
2023/12/29 09:58:33;;;;;;;0.00;0.00;;;28.10;46.70;;;;;;5088723;28;20226;-42
2023/12/29 10:01:07;;;;;;;0.00;0.00;;;28.10;46.80;;;;;;5088317;28;20209;-42
2023/12/29 10:03:38;;;;;;;0.00;0.00;;;28.20;46.90;;;;;;5089000;28;20198;-46
2023/12/29 10:06:12;;;;;;;0.00;0.00;;;28.10;47.00;;;;;;5088536;28;20685;-44
2023/12/29 10:08:47;;;;;;;0.00;0.00;;;28.10;47.10;;;;;;5089064;28;20210;-44
2023/12/29 10:11:20;;;;;;;0.00;0.00;;;28.10;47.20;;;;;;5088200;28;20204;-49
2023/12/29 10:13:53;;;;;;;0.00;0.00;;;28.10;47.90;;;;;;5088832;28;20247;-49
2023/12/29 10:16:30;;;;;;;0.00;0.00;;;28.10;47.30;;;;;;5087964;28;20305;-50
2023/12/29 10:19:09;;;;;;;0.00;0.00;;;28.10;47.30;;;;;;5087779;28;20230;-48
2023/12/29 10:21:46;;;;;;;0.00;0.00;;;28.00;47.30;;;;;;5087608;28;20296;-50
2023/12/29 10:24:21;;;;;;;0.00;0.00;;;28.00;47.20;;;;;;5087895;28;20198;-56
2023/12/29 10:26:54;;;;;;;0.00;0.00;;;28.00;47.20;;;;;;5087691;28;20679;-53
2023/12/29 10:29:25;;;;;;;0.00;0.00;;;28.00;47.10;;;;;;5087182;28;20190;-51
2023/12/29 10:31:57;;;;;;;0.00;0.00;;;28.00;47.00;;;;;;5088578;28;20208;-56
2023/12/29 10:34:31;;;;;;;0.00;0.00;;;28.00;46.90;;;;;;5087040;28;20194;-55
2023/12/29 10:37:06;;;;;;;0.00;0.00;;;27.90;46.80;;;;;;5087672;28;20222;-49
2023/12/29 10:39:37;;;;;;;0.00;0.00;;;27.90;46.80;;;;;;5087470;28;20225;-54
2023/12/29 10:42:09;;;;;;;0.00;0.00;;;27.90;46.90;;;;;;5087870;28;20282;-55
2023/12/29 10:44:43;;;;;;;0.00;0.00;;;27.80;46.80;;;;;;5088118;28;20186;-56
2023/12/29 10:47:16;;;;;;;0.00;0.00;;;27.80;46.70;;;;;;5087766;28;20217;-54
2023/12/29 10:49:47;;;;;;;0.00;0.00;;;27.80;46.80;;;;;;5085539;28;20198;-53
2023/12/29 10:52:18;;;;;;;0.00;0.00;;;27.80;46.80;;;;;;5087636;28;20259;-56
2023/12/29 10:54:49;;;;;;;0.00;0.00;;;27.80;46.90;;;;;;5087921;28;20209;-43
2023/12/29 10:57:20;;;;;;;0.00;0.00;;;27.70;46.90;;;;;;5087798;28;20213;-50
2023/12/29 10:59:59;;;;;;;0.00;0.00;;;27.80;47.00;;;;;;5087585;28;20701;-45
2023/12/29 11:02:33;;;;;;;0.00;0.00;;;27.80;47.10;;;;;;5087837;28;20553;-42
2023/12/29 11:05:08;;;;;;;0.00;0.00;;;27.80;47.10;;;;;;5086812;28;20719;-45
2023/12/29 11:07:40;;;;;;;0.00;0.00;;;27.70;47.00;;;;;;5086895;28;20225;-52
2023/12/29 11:10:11;;;;;;;0.00;0.00;;;27.70;47.10;;;;;;5088259;28;20186;-51
2023/12/29 11:12:42;;;;;;;0.00;0.00;;;27.70;47.20;;;;;;5087708;28;20566;-43
2023/12/29 11:15:15;;;;;;;0.00;0.00;;;27.70;47.20;;;;;;5087740;28;20202;-53
2023/12/29 11:17:51;;;;;;;0.00;0.00;;;27.70;47.20;;;;;;5087157;28;20226;-44
2023/12/29 11:20:22;;;;;;;0.00;0.00;;;27.70;47.20;;;;;;5087069;28;20335;-56
2023/12/29 11:22:53;;;;;;;0.00;0.00;;;27.70;47.20;;;;;;5087600;28;20205;-49
2023/12/29 11:25:23;;;;;;;0.00;0.00;;;27.60;47.10;;;;;;5087572;28;20293;-50
2023/12/29 11:27:56;;;;;;;0.00;0.00;;;27.60;47.10;;;;;;5087605;28;20194;-42
2023/12/29 11:30:27;;;;;;;0.00;0.00;;;27.60;47.10;;;;;;5086726;28;20198;-45
2023/12/29 11:33:04;;;;;;;0.00;0.00;;;27.60;47.10;;;;;;5086760;28;20202;-46
2023/12/29 11:35:40;;;;;;;0.00;0.00;;;27.60;47.10;;;;;;5091179;28;20206;-53
2023/12/29 11:38:32;;;;;;;0.00;0.00;;;27.50;47.00;;;;;;5090809;28;20198;-54
2023/12/29 11:41:08;;;;;;;0.00;0.00;;;27.50;47.00;;;;;;5091064;28;20198;-55
2023/12/29 11:43:40;;;;;;;0.00;0.00;;;27.50;47.00;;;;;;5090380;28;20649;-49
2023/12/29 11:46:30;;;;;;;0.00;0.00;;;27.50;47.00;;;;;;5090361;28;20206;-55
2023/12/29 11:49:04;;;;;;;0.00;0.00;;;27.50;47.10;;;;;;5090711;28;20182;-53
2023/12/29 11:51:36;;;;;;;0.00;0.00;;;27.40;47.10;;;;;;5093671;28;20263;-51
2023/12/29 11:54:08;;;;;;;0.00;0.00;;;27.40;47.20;;;;;;5091802;28;20183;-55
2023/12/29 11:56:40;;;;;;;0.00;0.00;;;27.40;47.20;;;;;;5094320;28;20282;-55
2023/12/29 11:59:17;;;;;;;0.00;0.00;;;27.40;47.30;;;;;;5094225;28;20618;-55
2023/12/29 12:01:49;;;;;;;0.00;0.00;;;27.40;47.30;;;;;;5091997;28;20645;-55
2023/12/29 12:04:42;;;;;;;0.00;0.00;;;27.40;47.30;;;;;;5094173;28;20194;-51
2023/12/29 12:07:18;;;;;;;0.00;0.00;;;27.30;47.90;;;;;;5091263;28;20474;-53
2023/12/29 12:09:49;;;;;;;0.00;0.00;;;27.30;47.30;;;;;;5103228;22;20229;-47
2023/12/29 12:12:43;;;;;;;0.00;0.00;;;27.30;47.30;;;;;;5083783;28;20187;-46
2023/12/29 12:15:35;;;;;;;0.00;0.00;;;27.30;47.40;;;;;;5080179;28;20651;-51
2023/12/29 12:18:07;;;;;;;0.00;0.00;;;27.30;47.30;;;;;;5062079;28;20200;-47
2023/12/29 12:20:40;;;;;;;0.00;0.00;;;27.30;47.30;;;;;;5061929;28;20215;-50
2023/12/29 12:23:19;;;;;;;0.00;0.00;;;27.30;47.30;;;;;;5063566;28;20183;-52
2023/12/29 12:25:52;;;;;;;0.00;0.00;;;27.20;47.30;;;;;;5062390;28;20207;-47
2023/12/29 12:28:23;;;;;;;0.00;0.00;;;27.20;47.30;;;;;;5062621;28;20183;-49
2023/12/29 12:30:53;;;;;;;0.00;0.00;;;27.20;47.30;;;;;;5063928;28;20191;-46
2023/12/29 12:33:25;;;;;;;0.00;0.00;;;27.20;47.30;;;;;;5063106;28;20625;-50
2023/12/29 12:36:06;;;;;;;0.00;0.00;;;27.20;47.30;;;;;;5061888;28;20246;-49
2023/12/29 12:38:37;;;;;;;0.00;0.00;;;27.20;47.30;;;;;;5066143;28;20195;-46
2023/12/29 12:41:17;;;;;;;0.00;0.00;;;27.10;47.30;;;;;;5064217;28;20211;-50
2023/12/29 12:43:53;;;;;;;0.00;0.00;;;27.10;47.30;;;;;;5064690;28;20194;-52
2023/12/29 12:46:27;;;;;;;0.00;0.00;;;27.10;47.30;;;;;;5061851;28;20206;-51
2023/12/29 12:48:57;;;;;;;0.00;0.00;;;27.10;47.30;;;;;;5062362;28;20234;-48
2023/12/29 12:51:30;;;;;;;0.00;0.00;;;27.10;47.40;;;;;;5063515;28;20198;-49
2023/12/29 12:54:01;;;;;;;0.00;0.00;;;27.10;47.40;;;;;;5063452;28;20187;-49
2023/12/29 12:56:32;;;;;;;0.00;0.00;;;27.10;47.40;;;;;;5060865;28;20216;-47
2023/12/29 12:59:05;;;;;;;0.00;0.00;;;27.10;47.50;;;;;;5060126;28;20184;-49
2023/12/29 13:01:39;;;;;;;0.00;0.00;;;27.10;47.50;;;;;;5060668;28;20191;-47
2023/12/29 13:04:10;;;;;;;0.00;0.00;;;27.00;47.40;;;;;;5060596;28;20183;-47
2023/12/29 13:06:46;;;;;;;0.00;0.00;;;27.00;47.40;;;;;;5063152;28;20214;-48
2023/12/29 13:09:19;;;;;;;0.00;0.00;;;27.00;47.40;;;;;;5088964;22;20225;-50
2023/12/29 13:11:49;;;;;;;0.00;0.00;;;27.00;47.40;;;;;;5110675;28;20242;-50